Time;durP1;ratioP1;P1;durP2;ratioP2;P2;SDS_P1;SDS_P2;PMS_P1;PMS_P2;Temp;Humidity;BMP_temperature;BMP_pressure;BME280_temperature;BME280_humidity;BME280_pressure;Samples;Min_cycle;Max_cycle;Signal;HPM_P1;HPM_P2
2022/06/11 00:02:08;;;;;;;6.40;5.80;;;;;;;16.30;88.52;97161.61;107682;1265;117913;-74
2022/06/11 00:04:42;;;;;;;7.20;5.50;;;;;;;16.24;88.69;97161.27;107915;1265;103970;-75
2022/06/11 00:07:19;;;;;;;7.20;5.50;;;;;;;16.20;88.78;97162.64;107936;1265;33296;-75
2022/06/11 00:09:51;;;;;;;9.10;6.10;;;;;;;16.14;88.78;97169.77;107660;1266;101369;-74
2022/06/11 00:12:24;;;;;;;7.60;6.10;;;;;;;16.08;88.78;97169.76;107918;1266;36463;-74
2022/06/11 00:14:57;;;;;;;6.50;5.90;;;;;;;16.06;89.03;97171.50;107665;1266;112904;-75
2022/06/11 00:17:28;;;;;;;7.10;5.70;;;;;;;16.08;89.07;97176.39;108060;1265;34633;-74
2022/06/11 00:20:00;;;;;;;7.90;5.50;;;;;;;16.09;89.13;97178.06;107792;1264;129963;-74
2022/06/11 00:22:31;;;;;;;5.70;5.10;;;;;;;16.10;89.21;97176.77;107952;1265;37658;-75
2022/06/11 00:25:02;;;;;;;12.60;5.70;;;;;;;16.10;89.23;97182.64;107481;1265;134214;-75
2022/06/11 00:27:34;;;;;;;9.70;6.70;;;;;;;16.08;89.08;97188.61;107840;1264;110374;-74
2022/06/11 00:30:08;;;;;;;7.60;6.20;;;;;;;15.99;89.38;97192.96;107599;1264;130325;-74
2022/06/11 00:32:39;;;;;;;7.70;5.60;;;;;;;15.98;89.53;97195.23;107973;1265;100666;-74
2022/06/11 00:35:12;;;;;;;8.10;5.70;;;;;;;16.01;89.68;97190.30;107710;1265;125489;-74
2022/06/11 00:37:44;;;;;;;6.80;6.10;;;;;;;16.06;89.93;97191.52;107954;1265;36978;-75
2022/06/11 00:40:19;;;;;;;8.30;5.80;;;;;;;16.10;90.02;97191.95;107727;1266;115044;-74
2022/06/11 00:42:51;;;;;;;9.40;5.60;;;;;;;16.11;90.07;97197.81;107922;1265;34806;-74
2022/06/11 00:45:27;;;;;;;7.90;5.40;;;;;;;16.13;90.18;97189.21;107648;1265;127173;-74
2022/06/11 00:48:02;;;;;;;7.20;5.30;;;;;;;16.14;90.30;97187.80;108117;1265;50216;-74
2022/06/11 00:50:40;;;;;;;8.40;6.40;;;;;;;16.18;90.48;97190.93;107766;1267;95861;-74
2022/06/11 00:53:22;;;;;;;6.20;5.10;;;;;;;16.21;90.37;97190.34;108053;1265;36733;-74
2022/06/11 00:55:54;;;;;;;6.50;5.80;;;;;;;16.19;90.29;97189.25;107958;1265;81222;-74
2022/06/11 00:58:31;;;;;;;8.60;6.80;;;;;;;16.00;89.90;97187.76;108054;1264;35847;-74
2022/06/11 01:01:02;;;;;;;6.60;5.80;;;;;;;15.81;90.03;97184.30;107902;1264;92476;-74
2022/06/11 01:03:38;;;;;;;6.50;5.80;;;;;;;15.68;90.45;97187.71;107989;1264;55940;-74
2022/06/11 01:06:20;;;;;;;8.10;6.50;;;;;;;15.61;90.87;97184.78;107934;1264;45890;-74
2022/06/11 01:09:02;;;;;;;6.80;6.10;;;;;;;15.58;91.15;97187.33;107994;1264;49827;-74
2022/06/11 01:11:49;;;;;;;7.50;6.60;;;;;;;15.60;91.57;97180.14;108001;1264;83613;-75
2022/06/11 01:14:32;;;;;;;7.60;6.60;;;;;;;15.64;91.82;97181.59;107867;1266;86072;-74
2022/06/11 01:17:13;;;;;;;8.70;7.80;;;;;;;15.74;92.19;97182.30;107943;1265;109118;-75
2022/06/11 01:20:18;;;;;;;6.10;5.60;;;;;;;15.83;92.17;97182.45;107781;1265;124672;-75
2022/06/11 01:23:18;;;;;;;6.80;6.00;;;;;;;15.78;92.20;97184.09;107573;1265;94450;-74
2022/06/11 01:26:00;;;;;;;6.70;6.00;;;;;;;15.74;92.65;97179.27;107963;1264;63090;-75
2022/06/11 01:28:57;;;;;;;6.50;5.90;;;;;;;15.72;92.55;97176.55;107874;1265;104067;-75
2022/06/11 01:31:33;;;;;;;8.30;5.70;;;;;;;15.57;92.53;97172.02;108038;1265;37476;-74
2022/06/11 01:34:11;;;;;;;8.80;6.40;;;;;;;15.52;92.94;97169.71;107739;1264;126131;-75
2022/06/11 01:36:45;;;;;;;7.30;6.40;;;;;;;15.51;93.14;97170.31;107831;1265;98661;-74
2022/06/11 01:39:26;;;;;;;7.80;6.30;;;;;;;15.52;93.23;97174.25;107928;1266;44445;-74
2022/06/11 01:41:59;;;;;;;;;;;;;;;15.55;93.45;97176.33;107879;1265;105530;-74
2022/06/11 01:44:33;;;;;;;6.60;5.90;;;;;;;15.63;93.86;97176.27;108108;1265;33920;-74
2022/06/11 01:47:05;;;;;;;8.00;6.10;;;;;;;15.67;93.92;97179.12;107518;1266;123584;-74
2022/06/11 01:49:44;;;;;;;7.00;6.30;;;;;;;15.72;94.05;97180.93;108009;1265;50989;-74
2022/06/11 01:52:37;;;;;;;7.30;6.30;;;;;;;15.76;93.90;97179.74;107677;1265;103004;-74
2022/06/11 01:55:21;;;;;;;7.40;5.70;;;;;;;15.72;93.59;97180.14;107904;1266;37348;-75
2022/06/11 01:58:20;;;;;;;6.20;5.60;;;;;;;15.67;93.65;97181.41;107651;1265;126658;-75
2022/06/11 02:00:58;;;;;;;7.20;6.50;;;;;;;15.66;93.92;97180.75;107815;1266;114503;-74
2022/06/11 02:03:41;;;;;;;9.70;6.00;;;;;;;15.68;94.02;97185.98;107808;1266;107504;-74
2022/06/11 02:06:25;;;;;;;7.10;6.40;;;;;;;15.71;93.86;97188.13;107781;1265;118354;-74
2022/06/11 02:09:08;;;;;;;7.30;5.30;;;;;;;15.78;94.00;97192.38;108044;1265;35039;-74
2022/06/11 02:11:42;;;;;;;8.90;5.70;;;;;;;15.85;94.11;97195.23;107787;1265;103022;-75
2022/06/11 02:14:19;;;;;;;6.00;5.30;;;;;;;15.92;94.24;97196.02;107972;1267;37401;-75
2022/06/11 02:16:55;;;;;;;6.20;5.30;;;;;;;15.97;94.26;97198.41;107657;1266;123139;-75
2022/06/11 02:19:31;;;;;;;6.90;4.90;;;;;;;16.00;94.18;97199.30;107935;1266;35870;-74
2022/06/11 02:22:07;;;;;;;6.00;5.40;;;;;;;16.05;94.14;97201.36;106914;1267;1309630;-75
2022/06/11 02:24:43;;;;;;;6.20;5.60;;;;;;;16.08;93.98;97202.55;107921;1266;103689;-75
2022/06/11 02:27:16;;;;;;;10.50;6.60;;;;;;;16.09;93.95;97199.16;107630;1265;139202;-74
2022/06/11 02:29:49;;;;;;;6.20;5.30;;;;;;;16.12;93.88;97204.21;107952;1265;75129;-74
2022/06/11 02:32:22;;;;;;;7.60;5.30;;;;;;;16.09;94.03;97203.55;107723;1265;116416;-74
2022/06/11 02:34:56;;;;;;;4.60;4.20;;;;;;;16.05;94.17;97209.33;107957;1265;83729;-74
2022/06/11 02:37:32;;;;;;;8.60;4.80;;;;;;;15.99;94.38;97203.77;107903;1265;88381;-74
2022/06/11 02:40:10;;;;;;;8.10;4.90;;;;;;;16.00;94.50;97207.23;107942;1265;43282;-74
2022/06/11 02:42:41;;;;;;;6.60;5.00;;;;;;;16.00;94.51;97205.56;107800;1265;110618;-74
2022/06/11 02:45:14;;;;;;;6.50;4.90;;;;;;;15.96;94.47;97205.98;107930;1265;45938;-74
2022/06/11 02:47:48;;;;;;;5.70;4.40;;;;;;;15.98;94.65;97203.44;107836;1265;114002;-74
2022/06/11 02:50:22;;;;;;;6.30;4.40;;;;;;;16.00;94.78;97207.23;107899;1265;105352;-74
2022/06/11 02:52:54;;;;;;;7.00;5.70;;;;;;;16.01;94.81;97203.89;107930;1266;63129;-74
2022/06/11 02:55:27;;;;;;;7.30;5.80;;;;;;;15.99;94.79;97202.72;107997;1265;46083;-74
2022/06/11 02:57:58;;;;;;;6.40;5.20;;;;;;;16.02;94.78;97202.64;108064;1265;40606;-74
2022/06/11 03:00:35;;;;;;;8.50;5.50;;;;;;;16.06;94.73;97199.47;108016;1266;40679;-74
2022/06/11 03:03:07;;;;;;;5.90;4.60;;;;;;;16.11;94.76;97200.39;107821;1266;89918;-74
2022/06/11 03:05:39;;;;;;;7.40;4.60;;;;;;;16.13;94.83;97198.99;107828;1265;95789;-74
2022/06/11 03:08:11;;;;;;;4.60;4.20;;;;;;;16.17;95.01;97204.27;107781;1266;124628;-75
2022/06/11 03:10:42;;;;;;;7.60;5.00;;;;;;;16.12;94.73;97201.13;107808;1265;109170;-74
2022/06/11 03:13:13;;;;;;;5.90;5.00;;;;;;;15.94;94.29;97206.77;107859;1265;99443;-74
2022/06/11 03:15:45;;;;;;;7.40;5.60;;;;;;;15.85;94.58;97205.35;107890;1266;69598;-74
2022/06/11 03:18:16;;;;;;;6.80;5.30;;;;;;;15.76;94.82;97201.30;107932;1266;45010;-74
2022/06/11 03:20:47;;;;;;;5.90;5.30;;;;;;;15.70;95.17;97198.42;107543;1266;115925;-74
2022/06/11 03:23:19;;;;;;;8.50;5.40;;;;;;;15.65;95.31;97199.91;107972;1266;35046;-74
2022/06/11 03:25:50;;;;;;;7.30;5.40;;;;;;;15.63;95.39;97198.55;107749;1264;117547;-74
2022/06/11 03:28:26;;;;;;;7.10;5.70;;;;;;;15.63;95.53;97200.05;108022;1264;53395;-74
2022/06/11 03:30:58;;;;;;;6.60;5.00;;;;;;;15.64;95.52;97199.34;107981;1265;81393;-74
2022/06/11 03:33:30;;;;;;;5.20;4.70;;;;;;;15.70;95.77;97197.16;107997;1265;96717;-74
2022/06/11 03:36:02;;;;;;;7.60;4.50;;;;;;;15.80;95.86;97200.75;107756;1265;124915;-76
2022/06/11 03:38:33;;;;;;;7.60;5.10;;;;;;;15.87;96.15;97201.33;107860;1266;77533;-75
2022/06/11 03:41:06;;;;;;;5.30;4.30;;;;;;;15.89;96.31;97202.25;107889;1267;108306;-74
2022/06/11 03:43:38;;;;;;;5.90;5.10;;;;;;;15.91;96.46;97201.16;107334;1265;138715;-75
2022/06/11 03:46:10;;;;;;;7.30;5.10;;;;;;;15.89;96.42;97205.30;107894;1266;76256;-75
2022/06/11 03:48:41;;;;;;;6.70;6.00;;;;;;;15.88;96.61;97199.38;107669;1266;120056;-75
2022/06/11 03:51:13;;;;;;;7.60;6.40;;;;;;;15.92;96.73;97199.66;107981;1266;39319;-75
2022/06/11 03:53:47;;;;;;;8.90;7.00;;;;;;;16.00;96.75;97201.13;107941;1266;35933;-74
2022/06/11 03:56:19;;;;;;;7.90;6.60;;;;;;;16.15;96.73;97198.11;107823;1264;102388;-74
2022/06/11 03:58:51;;;;;;;8.00;7.00;;;;;;;16.33;96.65;97196.40;107922;1265;76027;-75
2022/06/11 04:01:24;;;;;;;7.70;6.70;;;;;;;16.51;96.45;97200.28;107817;1267;121071;-74
2022/06/11 04:03:58;;;;;;;7.50;6.40;;;;;;;16.68;96.03;97194.20;107919;1266;83060;-74
2022/06/11 04:06:32;;;;;;;7.60;5.90;;;;;;;16.82;95.49;97199.98;107818;1266;136605;-74
2022/06/11 04:09:08;;;;;;;7.50;6.00;;;;;;;16.86;94.81;97199.29;107944;1266;42791;-75
2022/06/11 04:11:39;;;;;;;6.70;5.90;;;;;;;16.92;94.63;97202.31;107856;1264;95226;-75
2022/06/11 04:14:10;;;;;;;6.10;5.60;;;;;;;16.99;94.56;97201.50;107938;1266;39548;-75
2022/06/11 04:16:44;;;;;;;5.70;5.10;;;;;;;17.06;94.64;97202.70;107778;1265;98288;-75
2022/06/11 04:19:19;;;;;;;6.10;5.40;;;;;;;17.18;94.56;97203.84;108061;1267;36470;-74
2022/06/11 04:21:54;;;;;;;6.30;5.30;;;;;;;17.28;94.23;97206.01;107857;1265;66803;-75
2022/06/11 04:24:27;;;;;;;7.30;5.60;;;;;;;17.32;93.76;97203.86;107943;1266;38610;-74
2022/06/11 04:27:01;;;;;;;6.10;5.40;;;;;;;17.37;93.31;97203.89;107785;1266;105281;-75
2022/06/11 04:29:36;;;;;;;9.40;6.40;;;;;;;17.37;92.77;97205.02;107965;1266;53571;-75
2022/06/11 04:32:10;;;;;;;7.60;6.80;;;;;;;17.31;91.96;97203.94;107770;1265;104937;-75
2022/06/11 04:34:41;;;;;;;6.70;6.10;;;;;;;17.25;91.71;97200.34;107941;1266;76922;-74
2022/06/11 04:37:14;;;;;;;7.00;6.30;;;;;;;17.34;92.20;97201.28;107747;1264;121591;-74
2022/06/11 04:39:53;;;;;;;6.90;6.10;;;;;;;17.43;91.95;97197.13;107873;1265;134028;-74
2022/06/11 04:42:27;;;;;;;10.60;7.00;;;;;;;17.40;91.59;97195.23;107678;1266;132537;-74
2022/06/11 04:44:59;;;;;;;6.70;6.00;;;;;;;17.49;91.64;97197.20;108063;1265;58116;-74
2022/06/11 04:47:32;;;;;;;8.70;6.70;;;;;;;17.73;91.63;97187.89;107896;1266;97219;-74
2022/06/11 04:50:06;;;;;;;8.70;6.30;;;;;;;18.00;91.03;97185.66;107993;1267;32964;-75
2022/06/11 04:52:37;;;;;;;6.20;5.50;;;;;;;18.33;90.93;97187.80;107734;1266;102988;-75
2022/06/11 04:55:09;;;;;;;6.70;6.00;;;;;;;18.64;90.09;97186.79;107953;1265;44015;-74
2022/06/11 04:57:40;;;;;;;7.80;7.00;;;;;;;18.79;88.18;97189.66;108000;1264;35093;-74
2022/06/11 05:00:15;;;;;;;9.40;7.30;;;;;;;18.62;86.53;97192.69;107838;1266;71249;-75
2022/06/11 05:02:46;;;;;;;8.30;7.20;;;;;;;18.70;87.17;97196.42;107927;1267;93917;-75
2022/06/11 05:05:18;;;;;;;14.50;7.80;;;;;;;18.89;86.54;97196.80;107863;1265;97228;-74
2022/06/11 05:07:50;;;;;;;8.70;6.30;;;;;;;19.29;86.75;97198.97;107871;1266;64398;-75
2022/06/11 05:10:26;;;;;;;6.50;5.80;;;;;;;19.83;85.85;97205.05;107911;1267;74149;-75
2022/06/11 05:12:58;;;;;;;7.50;6.80;;;;;;;20.11;83.40;97204.35;108064;1266;46453;-74
2022/06/11 05:15:30;;;;;;;9.60;7.00;;;;;;;20.17;82.81;97201.66;108011;1267;53287;-75
2022/06/11 05:18:01;;;;;;;8.40;7.30;;;;;;;20.67;82.00;97201.58;107972;1265;106811;-75
2022/06/11 05:20:32;;;;;;;7.60;6.80;;;;;;;21.37;80.84;97201.62;107726;1267;82760;-75
2022/06/11 05:23:05;;;;;;;7.20;6.50;;;;;;;23.18;80.02;97197.81;107926;1266;84144;-75
2022/06/11 05:25:38;;;;;;;7.30;6.10;;;;;;;25.32;77.02;97196.65;107843;1267;107667;-75
2022/06/11 05:28:14;;;;;;;5.70;5.20;;;;;;;26.27;72.51;97195.17;107922;1264;79157;-75
2022/06/11 05:30:45;;;;;;;5.70;5.00;;;;;;;28.20;69.20;97198.04;107980;1267;53308;-76
2022/06/11 05:33:20;;;;;;;6.20;4.90;;;;;;;29.08;64.11;97198.25;107735;1267;94960;-76
2022/06/11 05:35:52;;;;;;;5.90;5.30;;;;;;;30.41;62.00;97200.13;107917;1265;56370;-75
2022/06/11 05:38:26;;;;;;;5.70;5.10;;;;;;;28.95;56.75;97202.71;107430;1266;128151;-75
2022/06/11 05:40:59;;;;;;;6.20;5.00;;;;;;;26.50;57.38;97209.40;108004;1266;38600;-75
2022/06/11 05:43:31;;;;;;;6.60;5.70;;;;;;;24.34;59.09;97210.66;107827;1267;132661;-75
2022/06/11 05:46:08;;;;;;;8.20;4.90;;;;;;;23.34;61.89;97215.67;107976;1265;42905;-76
2022/06/11 05:48:43;;;;;;;6.40;4.40;;;;;;;22.97;63.43;97212.16;107829;1266;116024;-75
2022/06/11 05:51:19;;;;;;;5.60;4.70;;;;;;;23.19;64.16;97210.09;107908;1266;58796;-75
2022/06/11 05:53:53;;;;;;;6.10;4.30;;;;;;;23.31;63.24;97208.89;107822;1266;83561;-75
2022/06/11 05:56:25;;;;;;;6.20;4.20;;;;;;;22.80;62.48;97212.55;107815;1266;73259;-75
2022/06/11 05:59:01;;;;;;;4.30;3.90;;;;;;;23.50;65.48;97216.58;108072;1265;39434;-75
2022/06/11 06:01:38;;;;;;;4.80;3.30;;;;;;;27.07;65.52;97216.19;107996;1265;57392;-76
2022/06/11 06:04:10;;;;;;;3.90;3.50;;;;;;;29.74;58.97;97218.02;107925;1265;103891;-76
2022/06/11 06:06:41;;;;;;;4.70;3.20;;;;;;;28.74;53.77;97221.27;107980;1266;63044;-76
2022/06/11 06:09:13;;;;;;;3.60;3.20;;;;;;;26.55;53.19;97226.96;107839;1266;68115;-75
2022/06/11 06:11:44;;;;;;;4.00;3.30;;;;;;;25.02;54.56;97233.53;107846;1264;80186;-75
2022/06/11 06:14:15;;;;;;;4.00;3.60;;;;;;;24.75;57.34;97235.23;107904;1267;55977;-75
2022/06/11 06:16:47;;;;;;;5.10;4.40;;;;;;;25.83;58.00;97228.10;106815;1265;1298854;-75
2022/06/11 06:19:18;;;;;;;4.70;4.20;;;;;;;26.81;58.61;97223.83;107972;1265;36945;-76
2022/06/11 06:21:50;;;;;;;4.50;4.10;;;;;;;27.40;55.53;97219.74;107666;1265;146473;-76
2022/06/11 06:24:21;;;;;;;4.80;4.20;;;;;;;26.55;55.66;97221.77;107957;1265;66036;-76
2022/06/11 06:26:53;;;;;;;4.40;3.70;;;;;;;25.68;55.71;97232.19;107842;1265;118682;-75
2022/06/11 06:29:26;;;;;;;6.20;3.70;;;;;;;25.50;56.73;97235.50;107842;1266;62738;-76
2022/06/11 06:31:58;;;;;;;3.30;3.00;;;;;;;25.09;55.80;97236.40;107796;1265;129322;-75
2022/06/11 06:34:30;;;;;;;6.00;3.90;;;;;;;24.60;55.73;97240.48;108044;1265;33483;-75
2022/06/11 06:37:01;;;;;;;4.10;3.30;;;;;;;24.38;56.30;97241.77;107435;1267;146513;-76
2022/06/11 06:39:33;;;;;;;4.60;3.60;;;;;;;25.41;58.04;97233.77;107914;1267;35344;-76
2022/06/11 06:42:06;;;;;;;3.80;3.00;;;;;;;27.84;56.25;97229.98;107519;1265;123670;-76
2022/06/11 06:44:37;;;;;;;2.80;2.50;;;;;;;27.77;52.59;97225.41;107830;1267;71575;-76
2022/06/11 06:47:09;;;;;;;3.90;2.40;;;;;;;26.58;51.54;97229.28;107830;1265;98387;-76
2022/06/11 06:49:40;;;;;;;3.10;2.80;;;;;;;26.24;51.82;97230.11;107768;1265;83099;-76
2022/06/11 06:52:11;;;;;;;3.60;3.30;;;;;;;24.77;49.64;97232.98;107854;1267;34510;-76
2022/06/11 06:54:43;;;;;;;4.20;3.70;;;;;;;23.25;52.44;97230.69;107900;1265;75523;-76
2022/06/11 06:57:14;;;;;;;3.60;3.30;;;;;;;22.72;55.36;97227.53;107904;1266;41567;-75
2022/06/11 06:59:45;;;;;;;5.20;3.70;;;;;;;24.25;56.35;97231.06;107522;1265;133844;-76
2022/06/11 07:02:17;;;;;;;2.90;2.60;;;;;;;24.29;53.74;97229.08;107926;1265;35362;-76
2022/06/11 07:04:48;;;;;;;3.90;2.60;;;;;;;22.90;52.98;97229.50;107789;1265;81563;-75
2022/06/11 07:07:20;;;;;;;4.80;2.80;;;;;;;22.27;54.40;97230.73;108028;1265;32727;-75
2022/06/11 07:09:57;;;;;;;3.90;2.90;;;;;;;22.03;55.90;97237.05;107855;1265;81144;-75
2022/06/11 07:12:28;;;;;;;5.30;4.20;;;;;;;21.85;57.41;97238.77;108092;1264;35154;-75
2022/06/11 07:14:59;;;;;;;6.20;4.60;;;;;;;21.68;58.66;97238.98;107855;1265;149925;-75
2022/06/11 07:17:36;;;;;;;5.20;4.50;;;;;;;21.47;59.21;97237.40;108059;1265;33604;-75
2022/06/11 07:20:16;;;;;;;8.60;4.90;;;;;;;21.24;60.32;97238.05;107604;1265;146150;-76
2022/06/11 07:22:52;;;;;;;6.50;5.50;;;;;;;21.11;61.29;97243.45;107950;1265;41774;-75
2022/06/11 07:25:25;;;;;;;6.50;5.30;;;;;;;20.98;61.57;97245.05;107898;1265;114465;-75
2022/06/11 07:28:00;;;;;;;9.00;7.20;;;;;;;20.72;62.45;97247.94;107696;1265;127696;-75
2022/06/11 07:30:36;;;;;;;6.50;5.80;;;;;;;20.55;63.62;97247.74;107729;1265;76727;-76
2022/06/11 07:33:12;;;;;;;10.00;6.20;;;;;;;20.45;64.27;97246.64;107703;1266;110429;-76
2022/06/11 07:35:43;;;;;;;7.40;6.60;;;;;;;20.43;64.69;97250.31;107815;1267;50268;-75
2022/06/11 07:38:19;;;;;;;6.10;5.50;;;;;;;20.41;64.46;97250.23;107553;1265;129844;-75
2022/06/11 07:40:51;;;;;;;6.40;5.60;;;;;;;20.48;65.07;97254.73;107604;1265;100712;-76
2022/06/11 07:43:23;;;;;;;7.60;6.90;;;;;;;20.71;65.67;97257.91;107494;1265;109888;-76
2022/06/11 07:45:54;;;;;;;9.30;6.90;;;;;;;20.94;65.42;97255.73;107846;1265;90762;-76
2022/06/11 07:48:25;;;;;;;7.10;6.30;;;;;;;20.89;64.38;97259.36;107926;1265;51686;-75
2022/06/11 07:50:57;;;;;;;6.90;6.10;;;;;;;20.67;64.59;97256.32;107458;1265;128952;-75
2022/06/11 07:53:28;;;;;;;7.50;5.80;;;;;;;20.46;65.17;97255.33;107987;1265;86983;-75
2022/06/11 07:56:01;;;;;;;7.70;5.30;;;;;;;20.24;64.24;97255.38;107634;1265;164026;-75
2022/06/11 07:58:34;;;;;;;6.00;5.20;;;;;;;20.04;64.09;97260.22;108069;1265;42905;-76
2022/06/11 08:01:06;;;;;;;6.70;5.20;;;;;;;19.92;63.77;97261.65;107720;1264;89577;-75
2022/06/11 08:03:39;;;;;;;6.10;5.00;;;;;;;19.65;63.49;97261.27;107870;1267;36658;-75
2022/06/11 08:06:10;;;;;;;5.80;4.90;;;;;;;19.50;64.18;97258.71;107839;1267;64016;-75
2022/06/11 08:08:44;;;;;;;4.70;3.90;;;;;;;19.61;65.14;97258.73;107903;1267;52249;-75
2022/06/11 08:11:15;;;;;;;4.50;4.10;;;;;;;19.82;65.02;97261.15;107717;1266;101785;-75
2022/06/11 08:13:47;;;;;;;4.60;3.80;;;;;;;19.92;64.15;97261.16;107929;1266;39237;-75
2022/06/11 08:16:21;;;;;;;5.70;3.40;;;;;;;19.95;63.47;97260.21;107827;1265;80611;-75
2022/06/11 08:18:52;;;;;;;4.30;3.40;;;;;;;20.00;63.43;97262.99;107965;1265;64001;-75
2022/06/11 08:21:24;;;;;;;5.30;3.90;;;;;;;20.24;63.83;97261.98;107897;1265;109815;-75
2022/06/11 08:23:55;;;;;;;6.70;4.90;;;;;;;20.50;62.69;97252.50;107904;1267;40284;-75
2022/06/11 08:26:27;;;;;;;5.60;4.70;;;;;;;21.99;63.33;97245.84;107842;1265;118235;-75
2022/06/11 08:28:58;;;;;;;3.80;3.10;;;;;;;24.41;60.35;97242.77;107960;1266;62088;-75
2022/06/11 08:31:29;;;;;;;6.10;2.80;;;;;;;26.48;56.65;97239.23;107831;1265;124783;-76
2022/06/11 08:34:01;;;;;;;4.90;2.80;;;;;;;28.41;53.54;97236.12;107997;1265;37662;-76
2022/06/11 08:36:33;;;;;;;3.20;2.30;;;;;;;30.42;50.63;97231.35;106451;1267;1572829;-77
2022/06/11 08:39:05;;;;;;;2.90;2.20;;;;;;;32.22;47.69;97222.77;107620;1267;91793;-75
2022/06/11 08:41:37;;;;;;;4.90;2.60;;;;;;;32.51;44.16;97222.91;107810;1266;83445;-76
2022/06/11 08:44:12;;;;;;;4.00;2.30;;;;;;;31.59;44.51;97218.39;107906;1265;43053;-76
2022/06/11 08:46:46;;;;;;;3.10;2.70;;;;;;;30.59;44.27;97217.69;107908;1267;36247;-76
2022/06/11 08:49:29;;;;;;;3.40;2.40;;;;;;;30.65;44.79;97209.86;107660;1266;252348;-76
2022/06/11 08:52:08;;;;;;;3.60;2.70;;;;;;;29.84;43.15;97211.00;108189;1265;31665;-76
2022/06/11 08:54:43;;;;;;;3.00;2.80;;;;;;;28.49;43.69;97211.81;107950;1265;83769;-76
2022/06/11 08:57:20;;;;;;;3.40;1.90;;;;;;;27.15;43.37;97204.19;107962;1265;37009;-76
2022/06/11 09:00:07;;;;;;;3.60;2.80;;;;;;;25.37;44.03;97214.70;107642;1267;121315;-75
2022/06/11 09:02:58;;;;;;;3.40;2.60;;;;;;;24.40;45.60;97209.42;107853;1267;98011;-75
2022/06/11 09:05:42;;;;;;;4.40;2.70;;;;;;;23.18;45.51;97205.59;107673;1266;108306;-75
2022/06/11 09:08:27;;;;;;;4.50;3.20;;;;;;;22.31;47.83;97206.07;107866;1267;36645;-75
2022/06/11 09:11:13;;;;;;;5.00;3.10;;;;;;;22.12;49.07;97199.25;107822;1267;113468;-75
2022/06/11 09:14:16;;;;;;;4.00;3.20;;;;;;;22.22;49.71;97197.33;107887;1267;73263;-76
2022/06/11 09:17:18;;;;;;;4.90;2.80;;;;;;;22.70;50.76;97188.39;107634;1265;114469;-75
2022/06/11 09:20:05;;;;;;;4.80;3.10;;;;;;;23.43;49.89;97190.89;107934;1265;35268;-76
2022/06/11 09:22:52;;;;;;;3.70;2.90;;;;;;;23.52;50.44;97184.39;107422;1267;119482;-76
2022/06/11 09:25:45;;;;;;;5.50;3.60;;;;;;;23.55;50.02;97187.42;107554;1267;126986;-75
2022/06/11 09:28:30;;;;;;;4.30;3.10;;;;;;;22.97;49.05;97183.45;107530;1266;131124;-75
2022/06/11 09:31:09;;;;;;;5.60;2.90;;;;;;;22.77;51.34;97178.72;107947;1267;35316;-75
2022/06/11 09:33:45;;;;;;;3.20;2.90;;;;;;;23.27;51.46;97179.17;107665;1267;114180;-75
2022/06/11 09:36:22;;;;;;;4.30;3.30;;;;;;;23.47;50.92;97180.08;107741;1265;127086;-75
2022/06/11 09:39:03;;;;;;;3.40;3.10;;;;;;;23.23;50.17;97178.06;106564;1265;1532534;-75
2022/06/11 09:41:44;;;;;;;6.70;2.80;;;;;;;23.38;51.42;97172.42;107869;1265;117046;-76
2022/06/11 09:44:34;;;;;;;6.60;3.50;;;;;;;23.63;50.55;97179.28;107712;1268;118166;-75
2022/06/11 09:47:20;;;;;;;6.50;3.30;;;;;;;23.04;48.60;97178.00;107949;1265;34771;-75
2022/06/11 09:50:02;;;;;;;4.10;2.60;;;;;;;22.33;49.74;97183.67;107703;1268;92739;-75
2022/06/11 09:52:38;;;;;;;4.40;3.10;;;;;;;22.38;49.54;97167.70;108012;1265;35635;-75
2022/06/11 09:55:27;;;;;;;4.00;2.80;;;;;;;22.79;50.42;97165.48;107748;1265;100624;-75
2022/06/11 09:58:09;;;;;;;3.10;2.60;;;;;;;23.15;49.89;97168.73;108053;1265;43722;-75
2022/06/11 10:00:45;;;;;;;4.90;2.60;;;;;;;23.43;48.51;97165.69;107663;1265;103978;-75
2022/06/11 10:03:29;;;;;;;5.70;3.10;;;;;;;23.68;50.03;97166.00;107944;1267;31142;-75
2022/06/11 10:06:07;;;;;;;5.90;2.80;;;;;;;24.19;50.83;97165.20;107597;1265;147744;-75
2022/06/11 10:08:46;;;;;;;4.50;2.50;;;;;;;24.04;49.52;97172.84;107937;1265;98466;-75
2022/06/11 10:11:24;;;;;;;4.70;2.60;;;;;;;23.52;49.28;97175.52;107571;1266;113524;-75
2022/06/11 10:14:28;;;;;;;4.10;2.70;;;;;;;23.16;49.85;97176.79;107872;1265;83847;-75
2022/06/11 10:16:58;;;;;;;3.40;2.60;;;;;;;23.13;50.18;97175.70;107737;1265;104375;-75
2022/06/11 10:19:37;;;;;;;4.10;2.70;;;;;;;23.32;51.63;97176.44;108010;1269;33230;-74
2022/06/11 10:22:16;;;;;;;5.00;2.80;;;;;;;23.95;52.20;97178.88;107772;1265;108227;-75
2022/06/11 10:25:01;;;;;;;4.50;3.00;;;;;;;24.30;51.54;97175.53;107841;1265;95431;-75
2022/06/11 10:27:37;;;;;;;4.40;2.40;;;;;;;24.32;48.89;97174.72;107937;1265;72479;-75
2022/06/11 10:30:23;;;;;;;3.10;2.60;;;;;;;23.99;49.58;97173.87;107844;1265;93323;-75
2022/06/11 10:32:58;;;;;;;3.30;2.60;;;;;;;23.57;49.08;97178.23;107781;1265;78406;-76
2022/06/11 10:35:37;;;;;;;3.30;2.80;;;;;;;23.43;50.05;97176.33;108006;1265;37741;-75
2022/06/11 10:38:22;;;;;;;3.70;2.60;;;;;;;23.34;50.19;97179.45;107847;1265;111292;-75
2022/06/11 10:40:56;;;;;;;6.60;2.90;;;;;;;23.24;50.42;97179.73;107925;1265;37780;-75
2022/06/11 10:43:36;;;;;;;3.20;2.90;;;;;;;23.13;50.31;97181.42;107880;1265;134955;-75
2022/06/11 10:46:09;;;;;;;3.10;2.80;;;;;;;23.02;51.58;97180.66;107970;1265;51138;-75
2022/06/11 10:48:43;;;;;;;4.70;3.00;;;;;;;23.03;51.89;97177.05;107497;1265;133649;-76
2022/06/11 10:51:29;;;;;;;3.70;2.80;;;;;;;23.15;52.23;97175.23;108033;1265;35482;-75
2022/06/11 10:54:07;;;;;;;2.80;2.60;;;;;;;23.49;51.37;97174.80;107649;1268;136616;-75
2022/06/11 10:56:46;;;;;;;5.00;3.90;;;;;;;23.15;50.98;97178.01;107939;1265;51384;-75
2022/06/11 10:59:26;;;;;;;4.60;3.50;;;;;;;22.62;52.48;97171.48;107360;1265;133387;-75
2022/06/11 11:02:02;;;;;;;6.40;3.30;;;;;;;22.46;52.99;97169.17;107776;1265;69470;-75
2022/06/11 11:04:56;;;;;;;9.90;3.40;;;;;;;22.36;53.47;97167.17;107758;1268;79098;-76
2022/06/11 11:07:41;;;;;;;3.30;3.00;;;;;;;22.41;53.58;97174.83;108004;1265;35300;-76
2022/06/11 11:10:40;;;;;;;5.70;3.40;;;;;;;22.61;53.38;97171.16;107835;1265;101688;-76
2022/06/11 11:13:20;;;;;;;5.20;3.20;;;;;;;23.12;53.38;97167.88;107649;1265;179951;-76
2022/06/11 11:16:01;;;;;;;4.70;4.10;;;;;;;23.32;52.61;97169.40;107764;1265;137182;-76
2022/06/11 11:18:37;;;;;;;;;;;;;;;23.01;51.63;97164.04;107942;1265;114794;-76
2022/06/11 11:21:20;;;;;;;4.80;3.90;;;;;;;22.87;52.09;97171.45;107385;1265;137735;-76
2022/06/11 11:23:54;;;;;;;3.70;3.30;;;;;;;22.99;52.24;97176.10;107773;1265;121675;-76
2022/06/11 11:26:35;;;;;;;4.40;2.70;;;;;;;22.92;51.30;97169.27;107501;1265;157280;-75
2022/06/11 11:29:12;;;;;;;4.00;2.10;;;;;;;22.84;50.88;97173.42;107996;1265;40004;-75
2022/06/11 11:31:49;;;;;;;3.70;2.20;;;;;;;22.89;51.06;97169.42;107583;1265;130773;-75
2022/06/11 11:34:28;;;;;;;3.70;2.30;;;;;;;22.94;50.75;97163.45;108085;1265;35919;-75
2022/06/11 11:37:18;;;;;;;2.00;1.80;;;;;;;23.11;50.08;97155.95;107862;1265;110601;-75
2022/06/11 11:39:54;;;;;;;5.30;1.70;;;;;;;23.10;49.25;97164.60;108013;1265;44986;-76
2022/06/11 11:42:27;;;;;;;3.30;1.80;;;;;;;23.30;50.39;97159.85;107790;1264;153564;-75
2022/06/11 11:44:59;;;;;;;3.40;1.80;;;;;;;23.36;49.77;97159.16;107952;1265;128626;-76
2022/06/11 11:47:35;;;;;;;4.80;2.00;;;;;;;23.33;49.91;97162.17;107999;1267;35635;-75
2022/06/11 11:50:21;;;;;;;3.70;1.90;;;;;;;23.31;50.05;97166.98;107721;1267;122972;-75
2022/06/11 11:52:59;;;;;;;2.20;1.60;;;;;;;23.22;48.95;97166.27;107860;1268;42611;-75
2022/06/11 11:55:33;;;;;;;1.70;1.50;;;;;;;23.11;49.06;97163.83;108044;1265;52597;-75
2022/06/11 11:58:08;;;;;;;1.60;1.50;;;;;;;22.98;49.24;97160.17;107792;1265;124822;-76
2022/06/11 12:00:46;;;;;;;3.10;1.80;;;;;;;23.21;50.14;97161.62;107798;1268;78103;-76
2022/06/11 12:03:25;;;;;;;3.20;1.80;;;;;;;23.56;50.87;97162.63;107781;1267;101670;-76